sensor_id;sensor_type;location;lat;lon;timestamp;temperature;humidity
27368;DHT22;14839;48.106;11.618;2023-03-23T05:00:35;7.60;94.60
27368;DHT22;14839;48.106;11.618;2023-03-23T05:03:01;7.70;94.60
27368;DHT22;14839;48.106;11.618;2023-03-23T05:05:27;7.80;94.60
27368;DHT22;14839;48.106;11.618;2023-03-23T05:07:55;7.80;94.60
27368;DHT22;14839;48.106;11.618;2023-03-23T05:10:22;7.90;94.60
27368;DHT22;14839;48.106;11.618;2023-03-23T05:12:48;7.90;94.60
27368;DHT22;14839;48.106;11.618;2023-03-23T05:15:15;7.80;94.60
27368;DHT22;14839;48.106;11.618;2023-03-23T05:17:41;7.80;94.60
27368;DHT22;14839;48.106;11.618;2023-03-23T05:20:12;7.80;94.60
27368;DHT22;14839;48.106;11.618;2023-03-23T05:22:38;7.90;94.60
27368;DHT22;14839;48.106;11.618;2023-03-23T05:25:05;8.00;94.60
27368;DHT22;14839;48.106;11.618;2023-03-23T05:27:35;8.00;94.60
27368;DHT22;14839;48.106;11.618;2023-03-23T05:30:01;8.00;94.60
27368;DHT22;14839;48.106;11.618;2023-03-23T05:32:27;8.00;94.60
27368;DHT22;14839;48.106;11.618;2023-03-23T05:34:57;8.10;94.60
27368;DHT22;14839;48.106;11.618;2023-03-23T05:37:23;8.10;94.60
27368;DHT22;14839;48.106;11.618;2023-03-23T05:39:50;8.20;94.60
27368;DHT22;14839;48.106;11.618;2023-03-23T05:42:20;8.20;94.60
27368;DHT22;14839;48.106;11.618;2023-03-23T05:44:46;8.30;94.60
27368;DHT22;14839;48.106;11.618;2023-03-23T05:47:13;8.30;94.60
27368;DHT22;14839;48.106;11.618;2023-03-23T05:49:38;8.40;94.60
27368;DHT22;14839;48.106;11.618;2023-03-23T05:52:04;8.50;94.60
27368;DHT22;14839;48.106;11.618;2023-03-23T05:54:30;8.60;94.60
27368;DHT22;14839;48.106;11.618;2023-03-23T05:56:55;8.60;94.60
27368;DHT22;14839;48.106;11.618;2023-03-23T05:59:21;8.60;94.60
27368;DHT22;14839;48.106;11.618;2023-03-23T06:01:47;8.80;94.60
27368;DHT22;14839;48.106;11.618;2023-03-23T06:04:13;8.80;94.60
27368;DHT22;14839;48.106;11.618;2023-03-23T06:06:39;8.90;94.60
27368;DHT22;14839;48.106;11.618;2023-03-23T06:09:06;9.00;94.60
27368;DHT22;14839;48.106;11.618;2023-03-23T06:11:32;9.10;94.60
27368;DHT22;14839;48.106;11.618;2023-03-23T06:13:58;9.10;94.60
27368;DHT22;14839;48.106;11.618;2023-03-23T06:16:24;9.20;94.60
27368;DHT22;14839;48.106;11.618;2023-03-23T06:18:50;9.30;94.60
27368;DHT22;14839;48.106;11.618;2023-03-23T06:21:16;9.30;94.60
27368;DHT22;14839;48.106;11.618;2023-03-23T06:23:44;9.40;94.60
27368;DHT22;14839;48.106;11.618;2023-03-23T06:26:12;9.50;94.60
27368;DHT22;14839;48.106;11.618;2023-03-23T06:28:39;9.50;94.60
27368;DHT22;14839;48.106;11.618;2023-03-23T06:31:06;9.70;94.40
27368;DHT22;14839;48.106;11.618;2023-03-23T06:33:37;9.80;94.20
27368;DHT22;14839;48.106;11.618;2023-03-23T06:36:03;9.80;94.40
27368;DHT22;14839;48.106;11.618;2023-03-23T06:38:30;9.90;94.40
27368;DHT22;14839;48.106;11.618;2023-03-23T06:40:56;10.00;94.60
27368;DHT22;14839;48.106;11.618;2023-03-23T06:43:23;10.10;94.20
27368;DHT22;14839;48.106;11.618;2023-03-23T06:45:49;10.20;93.90
27368;DHT22;14839;48.106;11.618;2023-03-23T06:48:15;10.20;93.30
27368;DHT22;14839;48.106;11.618;2023-03-23T06:50:45;10.30;93.20
27368;DHT22;14839;48.106;11.618;2023-03-23T06:53:11;10.40;93.30
27368;DHT22;14839;48.106;11.618;2023-03-23T06:55:37;10.40;93.10
27368;DHT22;14839;48.106;11.618;2023-03-23T06:58:04;10.40;92.70
27368;DHT22;14839;48.106;11.618;2023-03-23T07:00:32;10.50;92.30
27368;DHT22;14839;48.106;11.618;2023-03-23T07:02:57;10.50;92.00
27368;DHT22;14839;48.106;11.618;2023-03-23T07:05:23;10.50;92.00
27368;DHT22;14839;48.106;11.618;2023-03-23T07:07:50;10.60;91.50
27368;DHT22;14839;48.106;11.618;2023-03-23T07:10:16;10.70;91.20
27368;DHT22;14839;48.106;11.618;2023-03-23T07:12:41;10.80;90.60
27368;DHT22;14839;48.106;11.618;2023-03-23T07:15:08;11.00;90.70
27368;DHT22;14839;48.106;11.618;2023-03-23T07:17:39;11.10;90.60
27368;DHT22;14839;48.106;11.618;2023-03-23T07:20:05;11.30;90.10
27368;DHT22;14839;48.106;11.618;2023-03-23T07:22:31;11.50;89.50
27368;DHT22;14839;48.106;11.618;2023-03-23T07:24:57;11.60;89.30
27368;DHT22;14839;48.106;11.618;2023-03-23T07:27:23;11.80;89.00
27368;DHT22;14839;48.106;11.618;2023-03-23T07:29:48;12.00;88.40
27368;DHT22;14839;48.106;11.618;2023-03-23T07:32:14;12.20;87.80
27368;DHT22;14839;48.106;11.618;2023-03-23T07:34:41;12.40;87.20
27368;DHT22;14839;48.106;11.618;2023-03-23T07:37:07;12.60;86.60
27368;DHT22;14839;48.106;11.618;2023-03-23T07:39:33;12.90;86.50
27368;DHT22;14839;48.106;11.618;2023-03-23T07:41:59;13.20;84.70
27368;DHT22;14839;48.106;11.618;2023-03-23T07:44:25;13.40;83.90
27368;DHT22;14839;48.106;11.618;2023-03-23T07:46:51;13.70;82.60
27368;DHT22;14839;48.106;11.618;2023-03-23T07:49:17;14.00;80.90
27368;DHT22;14839;48.106;11.618;2023-03-23T07:51:43;14.10;80.20
27368;DHT22;14839;48.106;11.618;2023-03-23T07:54:09;14.40;79.30
27368;DHT22;14839;48.106;11.618;2023-03-23T07:56:36;14.60;78.70
27368;DHT22;14839;48.106;11.618;2023-03-23T07:59:03;14.90;79.00
27368;DHT22;14839;48.106;11.618;2023-03-23T08:01:30;15.50;77.90
27368;DHT22;14839;48.106;11.618;2023-03-23T08:03:56;15.80;75.20
27368;DHT22;14839;48.106;11.618;2023-03-23T08:06:24;16.10;75.40
27368;DHT22;14839;48.106;11.618;2023-03-23T08:08:49;16.30;73.10
27368;DHT22;14839;48.106;11.618;2023-03-23T08:11:19;16.30;74.20
27368;DHT22;14839;48.106;11.618;2023-03-23T08:13:46;16.10;73.60
27368;DHT22;14839;48.106;11.618;2023-03-23T08:16:11;16.00;72.50
27368;DHT22;14839;48.106;11.618;2023-03-23T08:18:39;15.80;73.90
27368;DHT22;14839;48.106;11.618;2023-03-23T08:21:05;15.80;74.00
27368;DHT22;14839;48.106;11.618;2023-03-23T08:23:35;15.80;73.90
27368;DHT22;14839;48.106;11.618;2023-03-23T08:26:05;15.70;75.50
27368;DHT22;14839;48.106;11.618;2023-03-23T08:28:33;15.70;74.90
27368;DHT22;14839;48.106;11.618;2023-03-23T08:30:58;15.80;74.20
27368;DHT22;14839;48.106;11.618;2023-03-23T08:33:24;15.70;74.00
27368;DHT22;14839;48.106;11.618;2023-03-23T08:36:00;15.60;74.30
27368;DHT22;14839;48.106;11.618;2023-03-23T08:38:27;15.50;74.60
27368;DHT22;14839;48.106;11.618;2023-03-23T08:40:58;15.50;75.10
27368;DHT22;14839;48.106;11.618;2023-03-23T08:43:24;15.40;75.50
27368;DHT22;14839;48.106;11.618;2023-03-23T08:45:50;15.40;75.40
27368;DHT22;14839;48.106;11.618;2023-03-23T08:48:16;15.40;75.20
27368;DHT22;14839;48.106;11.618;2023-03-23T08:50:43;15.40;75.50
27368;DHT22;14839;48.106;11.618;2023-03-23T08:53:09;15.60;75.50
27368;DHT22;14839;48.106;11.618;2023-03-23T08:55:35;15.80;74.90
27368;DHT22;14839;48.106;11.618;2023-03-23T08:58:01;15.90;73.90
27368;DHT22;14839;48.106;11.618;2023-03-23T09:00:26;16.00;74.80
27368;DHT22;14839;48.106;11.618;2023-03-23T09:02:53;16.20;73.30
27368;DHT22;14839;48.106;11.618;2023-03-23T09:05:22;16.30;73.10
27368;DHT22;14839;48.106;11.618;2023-03-23T09:07:51;16.40;72.70
27368;DHT22;14839;48.106;11.618;2023-03-23T09:10:18;16.30;74.90
27368;DHT22;14839;48.106;11.618;2023-03-23T09:12:44;16.30;75.50
27368;DHT22;14839;48.106;11.618;2023-03-23T09:15:13;16.50;76.00
27368;DHT22;14839;48.106;11.618;2023-03-23T09:17:42;16.80;74.30
27368;DHT22;14839;48.106;11.618;2023-03-23T09:20:09;17.00;72.80
27368;DHT22;14839;48.106;11.618;2023-03-23T09:22:42;17.30;71.30
27368;DHT22;14839;48.106;11.618;2023-03-23T09:25:11;17.40;70.10
27368;DHT22;14839;48.106;11.618;2023-03-23T09:27:37;17.30;70.30
27368;DHT22;14839;48.106;11.618;2023-03-23T09:30:09;17.30;71.30
27368;DHT22;14839;48.106;11.618;2023-03-23T09:32:36;17.30;71.30
27368;DHT22;14839;48.106;11.618;2023-03-23T09:35:04;17.40;71.00
27368;DHT22;14839;48.106;11.618;2023-03-23T09:37:33;17.50;68.20
27368;DHT22;14839;48.106;11.618;2023-03-23T09:40:00;17.80;65.00
27368;DHT22;14839;48.106;11.618;2023-03-23T09:48:26;17.90;64.30
27368;DHT22;14839;48.106;11.618;2023-03-23T09:51:00;18.00;64.10
27368;DHT22;14839;48.106;11.618;2023-03-23T09:53:38;18.20;64.00
27368;DHT22;14839;48.106;11.618;2023-03-23T09:56:10;18.30;63.50
27368;DHT22;14839;48.106;11.618;2023-03-23T09:59:01;18.60;61.90
27368;DHT22;14839;48.106;11.618;2023-03-23T10:01:33;18.80;61.30
27368;DHT22;14839;48.106;11.618;2023-03-23T10:04:24;19.20;60.40
27368;DHT22;14839;48.106;11.618;2023-03-23T10:06:53;19.40;60.20
27368;DHT22;14839;48.106;11.618;2023-03-23T10:09:22;19.90;58.10
27368;DHT22;14839;48.106;11.618;2023-03-23T10:17:31;20.50;54.50
27368;DHT22;14839;48.106;11.618;2023-03-23T10:29:29;19.90;55.40
27368;DHT22;14839;48.106;11.618;2023-03-23T10:32:19;19.70;55.40
27368;DHT22;14839;48.106;11.618;2023-03-23T10:34:56;19.60;54.40
27368;DHT22;14839;48.106;11.618;2023-03-23T10:37:28;19.10;55.50
27368;DHT22;14839;48.106;11.618;2023-03-23T10:39:57;19.00;56.00
27368;DHT22;14839;48.106;11.618;2023-03-23T10:42:32;18.90;56.30
27368;DHT22;14839;48.106;11.618;2023-03-23T10:45:23;18.80;57.20
27368;DHT22;14839;48.106;11.618;2023-03-23T10:48:18;18.70;58.20
27368;DHT22;14839;48.106;11.618;2023-03-23T10:50:48;18.40;59.40
27368;DHT22;14839;48.106;11.618;2023-03-23T10:53:19;18.50;59.80
27368;DHT22;14839;48.106;11.618;2023-03-23T10:55:46;18.60;58.50
27368;DHT22;14839;48.106;11.618;2023-03-23T10:58:23;18.70;58.70
27368;DHT22;14839;48.106;11.618;2023-03-23T11:00:49;18.70;58.70
27368;DHT22;14839;48.106;11.618;2023-03-23T11:05:47;18.80;59.40
27368;DHT22;14839;48.106;11.618;2023-03-23T11:08:19;18.90;58.90
27368;DHT22;14839;48.106;11.618;2023-03-23T11:10:51;19.00;58.80
27368;DHT22;14839;48.106;11.618;2023-03-23T11:13:19;19.00;59.10
27368;DHT22;14839;48.106;11.618;2023-03-23T11:15:47;19.10;57.00
27368;DHT22;14839;48.106;11.618;2023-03-23T11:18:20;19.10;55.10
27368;DHT22;14839;48.106;11.618;2023-03-23T11:20:49;19.00;55.80
27368;DHT22;14839;48.106;11.618;2023-03-23T11:23:30;19.20;58.50
27368;DHT22;14839;48.106;11.618;2023-03-23T11:26:06;19.20;56.60
27368;DHT22;14839;48.106;11.618;2023-03-23T11:28:36;19.20;56.60
27368;DHT22;14839;48.106;11.618;2023-03-23T11:31:05;19.20;56.10
27368;DHT22;14839;48.106;11.618;2023-03-23T11:33:51;19.50;57.00
27368;DHT22;14839;48.106;11.618;2023-03-23T11:36:18;19.70;56.10
27368;DHT22;14839;48.106;11.618;2023-03-23T11:38:45;19.80;56.10
27368;DHT22;14839;48.106;11.618;2023-03-23T11:41:12;19.90;55.50
27368;DHT22;14839;48.106;11.618;2023-03-23T11:43:40;20.00;56.30
27368;DHT22;14839;48.106;11.618;2023-03-23T11:46:18;20.10;55.30
27368;DHT22;14839;48.106;11.618;2023-03-23T11:49:00;20.20;58.90
27368;DHT22;14839;48.106;11.618;2023-03-23T11:51:52;20.40;55.50
27368;DHT22;14839;48.106;11.618;2023-03-23T11:54:56;20.70;54.70
27368;DHT22;14839;48.106;11.618;2023-03-23T11:57:22;20.90;53.50
27368;DHT22;14839;48.106;11.618;2023-03-23T11:59:49;20.80;51.70
27368;DHT22;14839;48.106;11.618;2023-03-23T12:05:25;20.80;52.60
27368;DHT22;14839;48.106;11.618;2023-03-23T12:08:08;21.10;52.90
27368;DHT22;14839;48.106;11.618;2023-03-23T12:10:50;21.20;51.60
27368;DHT22;14839;48.106;11.618;2023-03-23T12:16:13;21.20;51.10
27368;DHT22;14839;48.106;11.618;2023-03-23T12:19:36;21.20;50.50
27368;DHT22;14839;48.106;11.618;2023-03-23T12:21:52;20.90;50.80
27368;DHT22;14839;48.106;11.618;2023-03-23T12:33:03;21.10;52.90
27368;DHT22;14839;48.106;11.618;2023-03-23T12:38:43;21.20;53.20
27368;DHT22;14839;48.106;11.618;2023-03-23T12:44:10;20.80;55.30
27368;DHT22;14839;48.106;11.618;2023-03-23T12:49:29;20.70;50.80
27368;DHT22;14839;48.106;11.618;2023-03-23T12:53:03;20.60;51.60
27368;DHT22;14839;48.106;11.618;2023-03-23T13:05:46;20.50;52.40
27368;DHT22;14839;48.106;11.618;2023-03-23T13:08:23;20.50;52.20
27368;DHT22;14839;48.106;11.618;2023-03-23T13:10:51;20.50;52.00
27368;DHT22;14839;48.106;11.618;2023-03-23T13:13:23;20.40;52.30
27368;DHT22;14839;48.106;11.618;2023-03-23T13:16:09;20.50;51.70
27368;DHT22;14839;48.106;11.618;2023-03-23T13:19:03;20.40;51.10
27368;DHT22;14839;48.106;11.618;2023-03-23T13:24:12;20.00;51.60
27368;DHT22;14839;48.106;11.618;2023-03-23T13:26:41;19.90;51.70
27368;DHT22;14839;48.106;11.618;2023-03-23T13:29:18;19.80;51.60
27368;DHT22;14839;48.106;11.618;2023-03-23T13:31:46;19.80;52.30
27368;DHT22;14839;48.106;11.618;2023-03-23T13:34:19;19.50;52.70
27368;DHT22;14839;48.106;11.618;2023-03-23T13:36:56;19.60;51.90
27368;DHT22;14839;48.106;11.618;2023-03-23T13:39:25;19.40;51.70
27368;DHT22;14839;48.106;11.618;2023-03-23T13:45:18;19.40;52.70
27368;DHT22;14839;48.106;11.618;2023-03-23T13:47:44;19.60;53.30
27368;DHT22;14839;48.106;11.618;2023-03-23T13:50:26;19.80;52.70
27368;DHT22;14839;48.106;11.618;2023-03-23T13:52:54;19.70;52.40
27368;DHT22;14839;48.106;11.618;2023-03-23T14:05:59;19.80;52.90
27368;DHT22;14839;48.106;11.618;2023-03-23T14:10:58;19.80;54.70
27368;DHT22;14839;48.106;11.618;2023-03-23T14:16:37;19.70;55.70
27368;DHT22;14839;48.106;11.618;2023-03-23T14:19:13;19.60;57.30
27368;DHT22;14839;48.106;11.618;2023-03-23T14:21:41;19.50;58.70
27368;DHT22;14839;48.106;11.618;2023-03-23T14:26:36;19.60;58.10
27368;DHT22;14839;48.106;11.618;2023-03-23T14:29:03;19.40;58.80
27368;DHT22;14839;48.106;11.618;2023-03-23T14:31:29;19.40;59.10
27368;DHT22;14839;48.106;11.618;2023-03-23T14:33:56;19.30;58.70
27368;DHT22;14839;48.106;11.618;2023-03-23T14:36:27;19.20;59.20
27368;DHT22;14839;48.106;11.618;2023-03-23T14:39:04;19.30;59.40
27368;DHT22;14839;48.106;11.618;2023-03-23T14:41:31;19.30;58.80
27368;DHT22;14839;48.106;11.618;2023-03-23T14:44:00;19.30;60.10
27368;DHT22;14839;48.106;11.618;2023-03-23T14:46:27;19.40;57.80
27368;DHT22;14839;48.106;11.618;2023-03-23T14:48:53;19.30;58.40
27368;DHT22;14839;48.106;11.618;2023-03-23T14:51:20;19.10;57.90
27368;DHT22;14839;48.106;11.618;2023-03-23T14:53:46;19.10;57.80
27368;DHT22;14839;48.106;11.618;2023-03-23T14:56:18;18.90;57.90
27368;DHT22;14839;48.106;11.618;2023-03-23T14:58:48;18.90;58.40
27368;DHT22;14839;48.106;11.618;2023-03-23T15:01:26;18.60;59.40
27368;DHT22;14839;48.106;11.618;2023-03-23T15:03:56;18.60;59.40
27368;DHT22;14839;48.106;11.618;2023-03-23T15:06:26;18.60;59.80
27368;DHT22;14839;48.106;11.618;2023-03-23T15:08:56;18.50;60.10
27368;DHT22;14839;48.106;11.618;2023-03-23T15:11:24;18.50;60.80
27368;DHT22;14839;48.106;11.618;2023-03-23T15:13:56;18.30;61.10
27368;DHT22;14839;48.106;11.618;2023-03-23T15:16:30;18.10;61.90
27368;DHT22;14839;48.106;11.618;2023-03-23T15:19:00;17.90;62.30
27368;DHT22;14839;48.106;11.618;2023-03-23T15:21:29;17.80;62.90
27368;DHT22;14839;48.106;11.618;2023-03-23T15:23:56;17.90;62.00
27368;DHT22;14839;48.106;11.618;2023-03-23T15:26:32;17.90;63.70
27368;DHT22;14839;48.106;11.618;2023-03-23T15:29:22;17.80;63.10
27368;DHT22;14839;48.106;11.618;2023-03-23T15:31:52;17.90;62.80
27368;DHT22;14839;48.106;11.618;2023-03-23T15:34:39;17.90;61.60
27368;DHT22;14839;48.106;11.618;2023-03-23T15:37:20;17.80;62.30
27368;DHT22;14839;48.106;11.618;2023-03-23T15:39:47;17.80;62.90
27368;DHT22;14839;48.106;11.618;2023-03-23T15:42:29;17.80;62.90
27368;DHT22;14839;48.106;11.618;2023-03-23T15:45:22;17.80;63.10
27368;DHT22;14839;48.106;11.618;2023-03-23T15:47:49;17.80;63.10
27368;DHT22;14839;48.106;11.618;2023-03-23T15:50:20;17.90;62.60
27368;DHT22;14839;48.106;11.618;2023-03-23T15:52:57;17.70;64.70
27368;DHT22;14839;48.106;11.618;2023-03-23T15:55:35;17.50;65.30
27368;DHT22;14839;48.106;11.618;2023-03-23T15:58:09;17.40;65.60
27368;DHT22;14839;48.106;11.618;2023-03-23T16:00:36;17.40;65.90
27368;DHT22;14839;48.106;11.618;2023-03-23T16:03:10;17.20;65.20
27368;DHT22;14839;48.106;11.618;2023-03-23T16:05:36;17.20;65.50
27368;DHT22;14839;48.106;11.618;2023-03-23T16:08:02;17.20;66.10
27368;DHT22;14839;48.106;11.618;2023-03-23T16:10:28;17.10;66.50
27368;DHT22;14839;48.106;11.618;2023-03-23T16:12:54;17.10;66.10
27368;DHT22;14839;48.106;11.618;2023-03-23T16:15:20;17.00;66.20
27368;DHT22;14839;48.106;11.618;2023-03-23T16:17:46;17.00;66.40
27368;DHT22;14839;48.106;11.618;2023-03-23T16:20:21;16.90;67.30
27368;DHT22;14839;48.106;11.618;2023-03-23T16:22:48;16.80;67.00
27368;DHT22;14839;48.106;11.618;2023-03-23T16:25:14;16.60;67.00
27368;DHT22;14839;48.106;11.618;2023-03-23T16:27:41;16.60;67.90
27368;DHT22;14839;48.106;11.618;2023-03-23T16:30:25;16.60;69.40
27368;DHT22;14839;48.106;11.618;2023-03-23T16:32:51;16.50;70.70
27368;DHT22;14839;48.106;11.618;2023-03-23T16:35:17;16.40;73.10
27368;DHT22;14839;48.106;11.618;2023-03-23T16:37:49;16.30;74.80
27368;DHT22;14839;48.106;11.618;2023-03-23T16:40:15;16.20;76.60
27368;DHT22;14839;48.106;11.618;2023-03-23T16:42:41;16.10;76.10
27368;DHT22;14839;48.106;11.618;2023-03-23T16:45:08;16.00;78.10
27368;DHT22;14839;48.106;11.618;2023-03-23T16:47:33;15.90;79.40
27368;DHT22;14839;48.106;11.618;2023-03-23T16:49:59;15.70;81.70
27368;DHT22;14839;48.106;11.618;2023-03-23T16:52:25;15.60;81.10
27368;DHT22;14839;48.106;11.618;2023-03-23T16:54:51;15.50;83.50
27368;DHT22;14839;48.106;11.618;2023-03-23T16:57:17;15.40;82.40
27368;DHT22;14839;48.106;11.618;2023-03-23T16:59:42;15.30;82.70
27368;DHT22;14839;48.106;11.618;2023-03-23T17:02:11;15.30;83.00
27368;DHT22;14839;48.106;11.618;2023-03-23T17:04:42;15.20;82.70
27368;DHT22;14839;48.106;11.618;2023-03-23T17:07:08;15.20;82.10
27368;DHT22;14839;48.106;11.618;2023-03-23T17:09:33;15.20;82.60
27368;DHT22;14839;48.106;11.618;2023-03-23T17:11:59;15.20;84.50
27368;DHT22;14839;48.106;11.618;2023-03-23T17:14:25;15.10;84.50
27368;DHT22;14839;48.106;11.618;2023-03-23T17:16:51;15.10;85.00
27368;DHT22;14839;48.106;11.618;2023-03-23T17:19:16;15.10;84.80
27368;DHT22;14839;48.106;11.618;2023-03-23T17:21:42;15.00;85.00
27368;DHT22;14839;48.106;11.618;2023-03-23T17:24:08;15.00;84.70
27368;DHT22;14839;48.106;11.618;2023-03-23T17:26:34;14.90;85.10
27368;DHT22;14839;48.106;11.618;2023-03-23T17:29:00;14.80;85.30
27368;DHT22;14839;48.106;11.618;2023-03-23T17:31:26;14.80;85.70
27368;DHT22;14839;48.106;11.618;2023-03-23T17:33:52;14.80;86.30
27368;DHT22;14839;48.106;11.618;2023-03-23T17:36:18;14.70;85.90
27368;DHT22;14839;48.106;11.618;2023-03-23T17:38:44;14.70;85.10
27368;DHT22;14839;48.106;11.618;2023-03-23T17:41:10;14.60;85.90
27368;DHT22;14839;48.106;11.618;2023-03-23T17:43:37;14.50;85.60
27368;DHT22;14839;48.106;11.618;2023-03-23T17:46:05;14.50;86.60
27368;DHT22;14839;48.106;11.618;2023-03-23T17:48:31;14.50;86.90
27368;DHT22;14839;48.106;11.618;2023-03-23T17:50:57;14.40;88.10
27368;DHT22;14839;48.106;11.618;2023-03-23T17:53:24;14.20;88.30
27368;DHT22;14839;48.106;11.618;2023-03-23T17:55:51;14.10;88.70
27368;DHT22;14839;48.106;11.618;2023-03-23T17:58:17;14.00;88.90
27368;DHT22;14839;48.106;11.618;2023-03-23T18:00:43;13.90;89.50
27368;DHT22;14839;48.106;11.618;2023-03-23T18:03:09;13.90;89.60
27368;DHT22;14839;48.106;11.618;2023-03-23T18:05:35;13.90;90.20
27368;DHT22;14839;48.106;11.618;2023-03-23T18:08:05;13.90;89.90
27368;DHT22;14839;48.106;11.618;2023-03-23T18:10:30;14.00;89.50
27368;DHT22;14839;48.106;11.618;2023-03-23T18:12:59;14.00;90.10
27368;DHT22;14839;48.106;11.618;2023-03-23T18:15:25;14.00;89.80
27368;DHT22;14839;48.106;11.618;2023-03-23T18:17:52;13.90;89.60
27368;DHT22;14839;48.106;11.618;2023-03-23T18:20:18;13.90;89.50
27368;DHT22;14839;48.106;11.618;2023-03-23T18:22:43;13.80;89.20
27368;DHT22;14839;48.106;11.618;2023-03-23T18:25:09;13.70;89.20
27368;DHT22;14839;48.106;11.618;2023-03-23T18:27:34;13.70;89.20
27368;DHT22;14839;48.106;11.618;2023-03-23T18:30:00;13.70;89.50
27368;DHT22;14839;48.106;11.618;2023-03-23T18:32:27;13.80;90.70
27368;DHT22;14839;48.106;11.618;2023-03-23T18:34:52;13.70;90.80
27368;DHT22;14839;48.106;11.618;2023-03-23T18:37:19;13.60;91.30
27368;DHT22;14839;48.106;11.618;2023-03-23T18:39:45;13.60;91.30
27368;DHT22;14839;48.106;11.618;2023-03-23T18:42:10;13.60;90.90
27368;DHT22;14839;48.106;11.618;2023-03-23T18:44:36;13.60;90.70
27368;DHT22;14839;48.106;11.618;2023-03-23T18:47:01;13.70;90.60
27368;DHT22;14839;48.106;11.618;2023-03-23T18:49:27;13.80;90.40
27368;DHT22;14839;48.106;11.618;2023-03-23T18:51:54;13.70;90.40
27368;DHT22;14839;48.106;11.618;2023-03-23T18:54:20;13.70;90.10
27368;DHT22;14839;48.106;11.618;2023-03-23T18:56:46;13.60;90.60
27368;DHT22;14839;48.106;11.618;2023-03-23T18:59:11;13.60;90.20
27368;DHT22;14839;48.106;11.618;2023-03-23T19:01:37;13.50;89.60
27368;DHT22;14839;48.106;11.618;2023-03-23T19:04:02;13.50;89.60
27368;DHT22;14839;48.106;11.618;2023-03-23T19:06:28;13.60;88.90
27368;DHT22;14839;48.106;11.618;2023-03-23T19:08:55;13.60;89.00
27368;DHT22;14839;48.106;11.618;2023-03-23T19:11:22;13.60;89.20
27368;DHT22;14839;48.106;11.618;2023-03-23T19:13:52;13.50;88.90
27368;DHT22;14839;48.106;11.618;2023-03-23T19:16:19;13.50;88.70
27368;DHT22;14839;48.106;11.618;2023-03-23T19:18:44;13.50;88.70
27368;DHT22;14839;48.106;11.618;2023-03-23T19:21:10;13.50;88.60
27368;DHT22;14839;48.106;11.618;2023-03-23T19:23:36;13.50;89.00
27368;DHT22;14839;48.106;11.618;2023-03-23T19:26:02;13.50;88.90
27368;DHT22;14839;48.106;11.618;2023-03-23T19:28:27;13.50;88.90
27368;DHT22;14839;48.106;11.618;2023-03-23T19:30:55;13.40;89.20
27368;DHT22;14839;48.106;11.618;2023-03-23T19:33:22;13.50;89.30
27368;DHT22;14839;48.106;11.618;2023-03-23T19:35:49;13.40;89.30
27368;DHT22;14839;48.106;11.618;2023-03-23T19:38:17;13.40;89.50
27368;DHT22;14839;48.106;11.618;2023-03-23T19:40:55;13.40;89.80
27368;DHT22;14839;48.106;11.618;2023-03-23T19:43:25;13.40;89.50
27368;DHT22;14839;48.106;11.618;2023-03-23T19:45:52;13.40;89.50
27368;DHT22;14839;48.106;11.618;2023-03-23T19:48:18;13.40;89.60
27368;DHT22;14839;48.106;11.618;2023-03-23T19:50:44;13.40;89.60
27368;DHT22;14839;48.106;11.618;2023-03-23T19:53:12;13.40;89.50
27368;DHT22;14839;48.106;11.618;2023-03-23T19:55:37;13.40;89.30
27368;DHT22;14839;48.106;11.618;2023-03-23T19:58:03;13.50;89.30
27368;DHT22;14839;48.106;11.618;2023-03-23T20:00:29;13.50;89.50
27368;DHT22;14839;48.106;11.618;2023-03-23T20:02:55;13.40;89.20
27368;DHT22;14839;48.106;11.618;2023-03-23T20:05:21;13.40;89.20
27368;DHT22;14839;48.106;11.618;2023-03-23T20:07:47;13.40;89.20
27368;DHT22;14839;48.106;11.618;2023-03-23T20:10:12;13.30;89.00
27368;DHT22;14839;48.106;11.618;2023-03-23T20:12:38;13.30;89.80
27368;DHT22;14839;48.106;11.618;2023-03-23T20:15:04;13.30;89.50
27368;DHT22;14839;48.106;11.618;2023-03-23T20:17:29;13.20;90.10
27368;DHT22;14839;48.106;11.618;2023-03-23T20:19:55;13.20;90.10
27368;DHT22;14839;48.106;11.618;2023-03-23T20:22:21;13.20;89.80
27368;DHT22;14839;48.106;11.618;2023-03-23T20:24:47;13.10;90.20
27368;DHT22;14839;48.106;11.618;2023-03-23T20:27:16;13.10;90.30
27368;DHT22;14839;48.106;11.618;2023-03-23T20:29:42;13.10;90.60
27368;DHT22;14839;48.106;11.618;2023-03-23T20:32:08;13.10;90.50
27368;DHT22;14839;48.106;11.618;2023-03-23T20:34:34;13.10;90.60
27368;DHT22;14839;48.106;11.618;2023-03-23T20:37:01;13.20;90.80
27368;DHT22;14839;48.106;11.618;2023-03-23T20:39:31;13.20;90.50
27368;DHT22;14839;48.106;11.618;2023-03-23T20:41:59;13.20;90.40
27368;DHT22;14839;48.106;11.618;2023-03-23T20:44:26;13.20;90.10
27368;DHT22;14839;48.106;11.618;2023-03-23T20:46:55;13.20;90.10
27368;DHT22;14839;48.106;11.618;2023-03-23T20:49:22;13.20;90.10
27368;DHT22;14839;48.106;11.618;2023-03-23T20:51:49;13.10;90.40
27368;DHT22;14839;48.106;11.618;2023-03-23T20:54:17;13.20;90.50
27368;DHT22;14839;48.106;11.618;2023-03-23T20:56:44;13.20;90.30
27368;DHT22;14839;48.106;11.618;2023-03-23T20:59:10;13.20;90.50
27368;DHT22;14839;48.106;11.618;2023-03-23T21:01:36;13.20;90.50
27368;DHT22;14839;48.106;11.618;2023-03-23T21:04:05;13.20;90.70
27368;DHT22;14839;48.106;11.618;2023-03-23T21:06:33;13.20;90.80
27368;DHT22;14839;48.106;11.618;2023-03-23T21:09:01;13.10;91.00
27368;DHT22;14839;48.106;11.618;2023-03-23T21:11:28;13.10;91.10
27368;DHT22;14839;48.106;11.618;2023-03-23T21:13:54;13.00;91.40
27368;DHT22;14839;48.106;11.618;2023-03-23T21:16:22;13.10;91.70
27368;DHT22;14839;48.106;11.618;2023-03-23T21:18:48;13.10;91.70
27368;DHT22;14839;48.106;11.618;2023-03-23T21:21:14;13.00;91.90
27368;DHT22;14839;48.106;11.618;2023-03-23T21:23:42;13.10;92.20
27368;DHT22;14839;48.106;11.618;2023-03-23T21:26:12;13.10;92.30
27368;DHT22;14839;48.106;11.618;2023-03-23T21:28:39;13.10;92.40
27368;DHT22;14839;48.106;11.618;2023-03-23T21:31:05;13.00;93.00
27368;DHT22;14839;48.106;11.618;2023-03-23T21:33:32;12.90;93.30
27368;DHT22;14839;48.106;11.618;2023-03-23T21:35:58;13.00;93.70
27368;DHT22;14839;48.106;11.618;2023-03-23T21:38:25;13.00;93.90
27368;DHT22;14839;48.106;11.618;2023-03-23T21:40:52;12.90;94.00
27368;DHT22;14839;48.106;11.618;2023-03-23T21:43:18;12.90;94.00
27368;DHT22;14839;48.106;11.618;2023-03-23T21:45:45;12.90;94.20
27368;DHT22;14839;48.106;11.618;2023-03-23T21:48:11;12.80;94.50
27368;DHT22;14839;48.106;11.618;2023-03-23T21:50:39;12.80;94.10